sensor_id;sensor_type;location;lat;lon;timestamp;pressure;altitude;pressure_sealevel;temperature;humidity
27294;BME280;14785;52.556;13.430;2022-08-04T00:05:18;100634.84;;;29.20;100.00
27294;BME280;14785;52.556;13.430;2022-08-04T00:07:54;100637.88;;;29.18;100.00
27294;BME280;14785;52.556;13.430;2022-08-04T00:10:23;100633.50;;;29.12;100.00
27294;BME280;14785;52.556;13.430;2022-08-04T00:12:54;100629.13;;;29.06;100.00
27294;BME280;14785;52.556;13.430;2022-08-04T00:15:20;100632.41;;;29.18;100.00
27294;BME280;14785;52.556;13.430;2022-08-04T00:18:06;100622.56;;;29.12;100.00
27294;BME280;14785;52.556;13.430;2022-08-04T00:20:33;100620.66;;;29.08;100.00
27294;BME280;14785;52.556;13.430;2022-08-04T00:23:00;100628.81;;;29.13;100.00
27294;BME280;14785;52.556;13.430;2022-08-04T00:25:26;100624.75;;;29.00;100.00
27294;BME280;14785;52.556;13.430;2022-08-04T00:27:52;100620.06;;;29.01;100.00
27294;BME280;14785;52.556;13.430;2022-08-04T00:30:18;100625.28;;;28.97;100.00
27294;BME280;14785;52.556;13.430;2022-08-04T00:32:43;100625.31;;;28.87;100.00
27294;BME280;14785;52.556;13.430;2022-08-04T00:35:12;100624.22;;;28.83;100.00
27294;BME280;14785;52.556;13.430;2022-08-04T00:37:38;100625.56;;;28.91;100.00
27294;BME280;14785;52.556;13.430;2022-08-04T00:43:20;100625.88;;;28.74;100.00
27294;BME280;14785;52.556;13.430;2022-08-04T00:54:33;100623.75;;;28.51;100.00
27294;BME280;14785;52.556;13.430;2022-08-04T01:10:57;100623.69;;;28.31;100.00
27294;BME280;14785;52.556;13.430;2022-08-04T01:16:16;100616.59;;;28.45;100.00
27294;BME280;14785;52.556;13.430;2022-08-04T01:29:30;100613.28;;;28.08;100.00
27294;BME280;14785;52.556;13.430;2022-08-04T01:32:04;100619.59;;;28.14;100.00
27294;BME280;14785;52.556;13.430;2022-08-04T01:34:42;100614.13;;;28.14;100.00
27294;BME280;14785;52.556;13.430;2022-08-04T01:40:07;100618.75;;;28.03;100.00
27294;BME280;14785;52.556;13.430;2022-08-04T01:42:35;100628.03;;;27.92;100.00
27294;BME280;14785;52.556;13.430;2022-08-04T01:45:06;100628.00;;;27.82;100.00
27294;BME280;14785;52.556;13.430;2022-08-04T01:47:34;100629.41;;;27.90;100.00
27294;BME280;14785;52.556;13.430;2022-08-04T01:50:04;100632.97;;;27.95;100.00
27294;BME280;14785;52.556;13.430;2022-08-04T01:52:31;100631.78;;;27.81;100.00
27294;BME280;14785;52.556;13.430;2022-08-04T01:55:00;100632.59;;;27.61;100.00
27294;BME280;14785;52.556;13.430;2022-08-04T01:57:27;100626.28;;;27.61;100.00
27294;BME280;14785;52.556;13.430;2022-08-04T01:59:55;100625.19;;;27.62;100.00
27294;BME280;14785;52.556;13.430;2022-08-04T02:02:22;100625.72;;;27.59;100.00
27294;BME280;14785;52.556;13.430;2022-08-04T02:04:48;100617.50;;;27.49;100.00
27294;BME280;14785;52.556;13.430;2022-08-04T02:13:02;100613.66;;;27.40;100.00
27294;BME280;14785;52.556;13.430;2022-08-04T02:19:03;100619.09;;;27.40;100.00
27294;BME280;14785;52.556;13.430;2022-08-04T02:21:33;100617.41;;;27.29;100.00
27294;BME280;14785;52.556;13.430;2022-08-04T02:24:08;100612.28;;;27.37;100.00
27294;BME280;14785;52.556;13.430;2022-08-04T02:26:40;100612.47;;;27.26;100.00
27294;BME280;14785;52.556;13.430;2022-08-04T02:31:55;100602.69;;;27.35;100.00
27294;BME280;14785;52.556;13.430;2022-08-04T02:34:32;100603.25;;;27.37;100.00
27294;BME280;14785;52.556;13.430;2022-08-04T02:37:03;100606.47;;;27.29;100.00
27294;BME280;14785;52.556;13.430;2022-08-04T02:39:33;100607.09;;;27.36;100.00
27294;BME280;14785;52.556;13.430;2022-08-04T02:42:01;100593.97;;;27.43;100.00
27294;BME280;14785;52.556;13.430;2022-08-04T02:44:28;100604.88;;;27.38;100.00
27294;BME280;14785;52.556;13.430;2022-08-04T02:46:54;100611.72;;;27.35;100.00
27294;BME280;14785;52.556;13.430;2022-08-04T02:49:21;100602.84;;;27.18;100.00
27294;BME280;14785;52.556;13.430;2022-08-04T02:51:50;100593.81;;;27.13;100.00
27294;BME280;14785;52.556;13.430;2022-08-04T02:54:17;100590.56;;;27.16;100.00
27294;BME280;14785;52.556;13.430;2022-08-04T02:56:44;100591.63;;;27.10;100.00
27294;BME280;14785;52.556;13.430;2022-08-04T02:59:11;100594.31;;;27.05;100.00
27294;BME280;14785;52.556;13.430;2022-08-04T03:01:39;100591.06;;;27.03;100.00
27294;BME280;14785;52.556;13.430;2022-08-04T03:40:24;100596.88;;;26.70;100.00
27294;BME280;14785;52.556;13.430;2022-08-04T03:48:44;100598.75;;;26.64;100.00
27294;BME280;14785;52.556;13.430;2022-08-04T03:54:38;100584.66;;;26.46;100.00
27294;BME280;14785;52.556;13.430;2022-08-04T03:57:19;100584.97;;;26.49;100.00
27294;BME280;14785;52.556;13.430;2022-08-04T04:00:03;100594.06;;;26.60;100.00
27294;BME280;14785;52.556;13.430;2022-08-04T04:22:03;100589.91;;;26.52;100.00
27294;BME280;14785;52.556;13.430;2022-08-04T04:24:43;100583.09;;;26.55;100.00
27294;BME280;14785;52.556;13.430;2022-08-04T04:27:36;100592.47;;;26.64;100.00
27294;BME280;14785;52.556;13.430;2022-08-04T04:30:11;100594.16;;;26.70;100.00
27294;BME280;14785;52.556;13.430;2022-08-04T04:33:02;100593.34;;;26.74;100.00
27294;BME280;14785;52.556;13.430;2022-08-04T04:35:45;100602.34;;;26.75;100.00
27294;BME280;14785;52.556;13.430;2022-08-04T04:38:51;100600.69;;;26.69;100.00
27294;BME280;14785;52.556;13.430;2022-08-04T04:41:31;100602.97;;;26.50;100.00
27294;BME280;14785;52.556;13.430;2022-08-04T04:47:22;100597.31;;;26.62;100.00
27294;BME280;14785;52.556;13.430;2022-08-04T04:52:40;100599.41;;;26.45;100.00
27294;BME280;14785;52.556;13.430;2022-08-04T04:55:14;100603.72;;;26.41;100.00
27294;BME280;14785;52.556;13.430;2022-08-04T04:57:44;100598.31;;;26.46;100.00
27294;BME280;14785;52.556;13.430;2022-08-04T05:00:11;100607.22;;;26.68;100.00
27294;BME280;14785;52.556;13.430;2022-08-04T05:03:03;100603.81;;;26.56;100.00
27294;BME280;14785;52.556;13.430;2022-08-04T05:05:51;100606.28;;;26.52;100.00
27294;BME280;14785;52.556;13.430;2022-08-04T05:13:45;100598.00;;;26.10;100.00
27294;BME280;14785;52.556;13.430;2022-08-04T05:16:19;100612.16;;;26.07;100.00
27294;BME280;14785;52.556;13.430;2022-08-04T05:18:47;100608.56;;;26.34;100.00
27294;BME280;14785;52.556;13.430;2022-08-04T05:21:41;100605.97;;;26.49;100.00
27294;BME280;14785;52.556;13.430;2022-08-04T05:24:11;100608.75;;;26.54;100.00
27294;BME280;14785;52.556;13.430;2022-08-04T05:26:43;100610.63;;;26.85;100.00
27294;BME280;14785;52.556;13.430;2022-08-04T05:29:14;100617.50;;;26.97;100.00
27294;BME280;14785;52.556;13.430;2022-08-04T05:31:44;100609.47;;;26.76;100.00
27294;BME280;14785;52.556;13.430;2022-08-04T05:34:19;100613.25;;;26.75;100.00
27294;BME280;14785;52.556;13.430;2022-08-04T05:36:48;100610.63;;;26.85;100.00
27294;BME280;14785;52.556;13.430;2022-08-04T05:39:18;100608.53;;;27.07;100.00
27294;BME280;14785;52.556;13.430;2022-08-04T05:41:45;100613.09;;;26.91;100.00
27294;BME280;14785;52.556;13.430;2022-08-04T05:44:12;100617.31;;;27.09;100.00
27294;BME280;14785;52.556;13.430;2022-08-04T05:46:40;100609.72;;;27.21;100.00
27294;BME280;14785;52.556;13.430;2022-08-04T05:49:07;100613.03;;;27.28;100.00
27294;BME280;14785;52.556;13.430;2022-08-04T05:51:34;100607.06;;;27.31;100.00
27294;BME280;14785;52.556;13.430;2022-08-04T05:54:00;100617.75;;;27.42;100.00
27294;BME280;14785;52.556;13.430;2022-08-04T05:56:27;100609.97;;;27.19;100.00
27294;BME280;14785;52.556;13.430;2022-08-04T05:58:53;100610.63;;;27.31;100.00
27294;BME280;14785;52.556;13.430;2022-08-04T06:01:20;100612.91;;;27.59;100.00
27294;BME280;14785;52.556;13.430;2022-08-04T06:03:45;100619.50;;;27.12;100.00
27294;BME280;14785;52.556;13.430;2022-08-04T06:06:13;100612.88;;;27.54;100.00
27294;BME280;14785;52.556;13.430;2022-08-04T06:08:39;100616.44;;;27.55;100.00
27294;BME280;14785;52.556;13.430;2022-08-04T06:11:07;100620.22;;;27.44;100.00
27294;BME280;14785;52.556;13.430;2022-08-04T06:13:40;100614.09;;;27.22;100.00
27294;BME280;14785;52.556;13.430;2022-08-04T06:16:07;100625.47;;;27.04;100.00
27294;BME280;14785;52.556;13.430;2022-08-04T06:18:33;100618.97;;;27.15;100.00
27294;BME280;14785;52.556;13.430;2022-08-04T06:21:01;100619.63;;;27.37;100.00
27294;BME280;14785;52.556;13.430;2022-08-04T06:23:29;100622.94;;;27.39;100.00
27294;BME280;14785;52.556;13.430;2022-08-04T06:25:57;100621.84;;;27.40;100.00
27294;BME280;14785;52.556;13.430;2022-08-04T06:28:26;100618.00;;;27.36;100.00
27294;BME280;14785;52.556;13.430;2022-08-04T06:30:53;100622.34;;;27.32;100.00
27294;BME280;14785;52.556;13.430;2022-08-04T06:33:20;100618.59;;;27.48;100.00
27294;BME280;14785;52.556;13.430;2022-08-04T06:35:58;100623.25;;;27.52;100.00
27294;BME280;14785;52.556;13.430;2022-08-04T06:38:26;100627.91;;;27.62;100.00
27294;BME280;14785;52.556;13.430;2022-08-04T06:40:53;100625.03;;;27.99;100.00
27294;BME280;14785;52.556;13.430;2022-08-04T06:43:20;100625.59;;;28.31;100.00
27294;BME280;14785;52.556;13.430;2022-08-04T06:45:47;100627.25;;;28.22;100.00
27294;BME280;14785;52.556;13.430;2022-08-04T06:48:15;100634.09;;;28.19;100.00
27294;BME280;14785;52.556;13.430;2022-08-04T06:50:42;100622.31;;;28.34;100.00
27294;BME280;14785;52.556;13.430;2022-08-04T06:53:10;100630.84;;;28.47;100.00
27294;BME280;14785;52.556;13.430;2022-08-04T06:55:36;100632.19;;;28.75;100.00
27294;BME280;14785;52.556;13.430;2022-08-04T06:58:02;100618.75;;;28.83;100.00
27294;BME280;14785;52.556;13.430;2022-08-04T07:00:28;100622.03;;;28.80;100.00
27294;BME280;14785;52.556;13.430;2022-08-04T07:02:55;100620.44;;;28.69;100.00
27294;BME280;14785;52.556;13.430;2022-08-04T07:05:22;100624.25;;;28.68;100.00
27294;BME280;14785;52.556;13.430;2022-08-04T07:07:47;100627.47;;;29.15;100.00
27294;BME280;14785;52.556;13.430;2022-08-04T07:10:14;100624.69;;;29.20;100.00
27294;BME280;14785;52.556;13.430;2022-08-04T07:12:42;100626.91;;;29.13;100.00
27294;BME280;14785;52.556;13.430;2022-08-04T07:15:08;100619.81;;;29.07;100.00
27294;BME280;14785;52.556;13.430;2022-08-04T07:17:35;100623.34;;;28.98;100.00
27294;BME280;14785;52.556;13.430;2022-08-04T07:20:03;100620.38;;;28.84;100.00
27294;BME280;14785;52.556;13.430;2022-08-04T07:22:29;100615.97;;;28.98;100.00
27294;BME280;14785;52.556;13.430;2022-08-04T07:24:56;100620.81;;;29.31;99.72
27294;BME280;14785;52.556;13.430;2022-08-04T07:27:23;100619.06;;;29.60;100.00
27294;BME280;14785;52.556;13.430;2022-08-04T07:29:49;100618.75;;;29.67;99.50
27294;BME280;14785;52.556;13.430;2022-08-04T07:32:15;100606.84;;;29.87;100.00
27294;BME280;14785;52.556;13.430;2022-08-04T07:34:43;100620.59;;;29.82;98.55
27294;BME280;14785;52.556;13.430;2022-08-04T07:37:08;100610.59;;;29.52;100.00
27294;BME280;14785;52.556;13.430;2022-08-04T07:39:34;100612.25;;;29.48;100.00
27294;BME280;14785;52.556;13.430;2022-08-04T07:42:01;100613.84;;;29.64;100.00
27294;BME280;14785;52.556;13.430;2022-08-04T07:44:29;100611.56;;;29.76;100.00
27294;BME280;14785;52.556;13.430;2022-08-04T07:46:55;100612.59;;;29.90;100.00
27294;BME280;14785;52.556;13.430;2022-08-04T07:49:20;100602.78;;;30.23;100.00
27294;BME280;14785;52.556;13.430;2022-08-04T07:51:46;100606.09;;;30.20;100.00
27294;BME280;14785;52.556;13.430;2022-08-04T07:54:12;100609.50;;;30.02;100.00
27294;BME280;14785;52.556;13.430;2022-08-04T07:56:40;100611.13;;;30.03;99.52
27294;BME280;14785;52.556;13.430;2022-08-04T07:59:06;100610.06;;;29.99;100.00
27294;BME280;14785;52.556;13.430;2022-08-04T08:01:33;100612.91;;;30.27;100.00
27294;BME280;14785;52.556;13.430;2022-08-04T08:03:59;100608.84;;;30.20;100.00
27294;BME280;14785;52.556;13.430;2022-08-04T08:06:25;100603.78;;;30.32;98.10
27294;BME280;14785;52.556;13.430;2022-08-04T08:08:53;100603.06;;;30.55;93.81
27294;BME280;14785;52.556;13.430;2022-08-04T08:11:19;100602.06;;;30.41;97.08
27294;BME280;14785;52.556;13.430;2022-08-04T08:13:45;100605.16;;;30.63;98.41
27294;BME280;14785;52.556;13.430;2022-08-04T08:16:12;100600.00;;;30.56;97.71
27294;BME280;14785;52.556;13.430;2022-08-04T08:18:37;100590.84;;;30.66;95.35
27294;BME280;14785;52.556;13.430;2022-08-04T08:21:03;100602.63;;;30.71;100.00
27294;BME280;14785;52.556;13.430;2022-08-04T08:23:30;100595.63;;;30.84;94.87
27294;BME280;14785;52.556;13.430;2022-08-04T08:25:58;100599.78;;;31.05;93.30
27294;BME280;14785;52.556;13.430;2022-08-04T08:28:24;100598.66;;;31.06;92.08
27294;BME280;14785;52.556;13.430;2022-08-04T08:30:50;100587.34;;;31.36;89.66
27294;BME280;14785;52.556;13.430;2022-08-04T08:33:15;100589.78;;;31.38;89.08
27294;BME280;14785;52.556;13.430;2022-08-04T08:35:48;100597.31;;;31.69;88.42
27294;BME280;14785;52.556;13.430;2022-08-04T08:38:15;100596.88;;;31.62;86.00
27294;BME280;14785;52.556;13.430;2022-08-04T08:44:10;100593.31;;;31.80;84.69
27294;BME280;14785;52.556;13.430;2022-08-04T08:47:00;100602.56;;;31.89;85.88
27294;BME280;14785;52.556;13.430;2022-08-04T09:00:44;100586.31;;;32.06;93.78
27294;BME280;14785;52.556;13.430;2022-08-04T09:06:30;100586.91;;;32.40;87.83
27294;BME280;14785;52.556;13.430;2022-08-04T09:12:00;100584.53;;;32.79;81.82
27294;BME280;14785;52.556;13.430;2022-08-04T09:14:40;100578.59;;;32.72;85.13
27294;BME280;14785;52.556;13.430;2022-08-04T09:17:19;100590.22;;;32.69;82.59
27294;BME280;14785;52.556;13.430;2022-08-04T09:19:56;100580.31;;;32.68;81.31
27294;BME280;14785;52.556;13.430;2022-08-04T09:25:29;100588.22;;;33.29;78.40
27294;BME280;14785;52.556;13.430;2022-08-04T09:27:59;100583.25;;;33.67;74.97
27294;BME280;14785;52.556;13.430;2022-08-04T09:30:51;100578.50;;;33.59;76.11
27294;BME280;14785;52.556;13.430;2022-08-04T09:36:02;100569.59;;;33.62;78.49
27294;BME280;14785;52.556;13.430;2022-08-04T09:44:22;100579.16;;;33.78;74.85
27294;BME280;14785;52.556;13.430;2022-08-04T09:49:52;100577.91;;;33.97;73.31
27294;BME280;14785;52.556;13.430;2022-08-04T09:52:22;100564.94;;;34.50;70.78
27294;BME280;14785;52.556;13.430;2022-08-04T09:55:17;100574.31;;;33.97;71.42
27294;BME280;14785;52.556;13.430;2022-08-04T09:57:54;100566.31;;;34.17;70.51
27294;BME280;14785;52.556;13.430;2022-08-04T10:00:26;100568.84;;;34.49;71.84
27294;BME280;14785;52.556;13.430;2022-08-04T10:02:57;100574.91;;;34.60;70.58
27294;BME280;14785;52.556;13.430;2022-08-04T10:05:30;100568.63;;;34.37;66.12
27294;BME280;14785;52.556;13.430;2022-08-04T10:08:21;100573.47;;;34.62;64.77
27294;BME280;14785;52.556;13.430;2022-08-04T10:11:15;100568.41;;;34.56;63.13
27294;BME280;14785;52.556;13.430;2022-08-04T10:13:59;100551.41;;;34.71;64.44
27294;BME280;14785;52.556;13.430;2022-08-04T10:16:56;100564.38;;;35.01;65.79
27294;BME280;14785;52.556;13.430;2022-08-04T10:19:34;100560.31;;;34.99;69.21
27294;BME280;14785;52.556;13.430;2022-08-04T10:22:17;100565.06;;;35.07;66.63
27294;BME280;14785;52.556;13.430;2022-08-04T10:25:01;100559.69;;;35.10;63.87
27294;BME280;14785;52.556;13.430;2022-08-04T10:27:33;100559.19;;;36.07;63.41
27294;BME280;14785;52.556;13.430;2022-08-04T10:30:11;100554.16;;;36.81;56.65
27294;BME280;14785;52.556;13.430;2022-08-04T10:35:20;100548.09;;;37.45;54.76
27294;BME280;14785;52.556;13.430;2022-08-04T10:40:39;100538.19;;;37.07;53.66
27294;BME280;14785;52.556;13.430;2022-08-04T10:46:26;100545.53;;;38.35;46.27
27294;BME280;14785;52.556;13.430;2022-08-04T10:49:07;100538.25;;;38.99;47.71
27294;BME280;14785;52.556;13.430;2022-08-04T10:51:52;100541.78;;;39.35;47.50
27294;BME280;14785;52.556;13.430;2022-08-04T10:57:12;100536.47;;;38.70;44.66
27294;BME280;14785;52.556;13.430;2022-08-04T10:59:44;100519.59;;;38.99;45.66
27294;BME280;14785;52.556;13.430;2022-08-04T11:02:35;100535.34;;;39.07;42.43
27294;BME280;14785;52.556;13.430;2022-08-04T11:08:08;100524.31;;;38.87;40.21
27294;BME280;14785;52.556;13.430;2022-08-04T11:10:42;100515.72;;;39.16;41.49
27294;BME280;14785;52.556;13.430;2022-08-04T11:13:10;100523.50;;;39.10;39.00
27294;BME280;14785;52.556;13.430;2022-08-04T11:15:43;100531.59;;;39.39;37.32
27294;BME280;14785;52.556;13.430;2022-08-04T11:18:14;100529.50;;;39.88;41.35
27294;BME280;14785;52.556;13.430;2022-08-04T11:20:58;100511.16;;;39.47;39.46
27294;BME280;14785;52.556;13.430;2022-08-04T11:23:33;100510.19;;;39.67;36.05
27294;BME280;14785;52.556;13.430;2022-08-04T11:26:12;100512.91;;;39.92;37.63
27294;BME280;14785;52.556;13.430;2022-08-04T11:28:53;100514.63;;;40.39;37.50
27294;BME280;14785;52.556;13.430;2022-08-04T11:31:25;100507.00;;;40.52;34.84
27294;BME280;14785;52.556;13.430;2022-08-04T11:34:09;100515.00;;;40.10;36.34
27294;BME280;14785;52.556;13.430;2022-08-04T11:37:05;100521.50;;;39.47;34.02
27294;BME280;14785;52.556;13.430;2022-08-04T11:39:28;100504.72;;;38.95;37.34
27294;BME280;14785;52.556;13.430;2022-08-04T11:44:50;100512.47;;;40.95;33.26
27294;BME280;14785;52.556;13.430;2022-08-04T11:47:26;100505.53;;;41.93;30.69
27294;BME280;14785;52.556;13.430;2022-08-04T11:52:43;100504.34;;;41.75;28.81
27294;BME280;14785;52.556;13.430;2022-08-04T11:55:12;100506.22;;;41.17;32.07
27294;BME280;14785;52.556;13.430;2022-08-04T11:57:39;100511.91;;;40.58;33.58
27294;BME280;14785;52.556;13.430;2022-08-04T12:00:08;100507.59;;;41.42;34.43
27294;BME280;14785;52.556;13.430;2022-08-04T12:05:29;100500.53;;;41.48;31.91
27294;BME280;14785;52.556;13.430;2022-08-04T12:08:35;100491.75;;;40.96;32.83
27294;BME280;14785;52.556;13.430;2022-08-04T12:11:12;100492.78;;;40.88;31.50
27294;BME280;14785;52.556;13.430;2022-08-04T12:13:40;100487.63;;;40.43;32.18
27294;BME280;14785;52.556;13.430;2022-08-04T12:18:55;100493.31;;;40.62;31.24
27294;BME280;14785;52.556;13.430;2022-08-04T12:21:28;100480.97;;;40.63;31.38
27294;BME280;14785;52.556;13.430;2022-08-04T12:24:13;100487.75;;;41.47;31.13
27294;BME280;14785;52.556;13.430;2022-08-04T12:26:45;100486.16;;;41.65;28.52
27294;BME280;14785;52.556;13.430;2022-08-04T12:29:14;100479.56;;;40.85;27.50
27294;BME280;14785;52.556;13.430;2022-08-04T12:31:48;100485.84;;;40.82;28.78
27294;BME280;14785;52.556;13.430;2022-08-04T12:34:31;100491.97;;;40.72;27.68
27294;BME280;14785;52.556;13.430;2022-08-04T12:37:05;100473.50;;;40.83;27.45
27294;BME280;14785;52.556;13.430;2022-08-04T12:39:34;100479.66;;;41.42;28.03
27294;BME280;14785;52.556;13.430;2022-08-04T12:42:21;100481.16;;;42.35;26.76
27294;BME280;14785;52.556;13.430;2022-08-04T12:44:48;100474.13;;;40.92;29.41
27294;BME280;14785;52.556;13.430;2022-08-04T12:47:22;100463.88;;;40.49;31.73
27294;BME280;14785;52.556;13.430;2022-08-04T12:49:49;100470.69;;;40.05;30.31
27294;BME280;14785;52.556;13.430;2022-08-04T12:52:17;100463.03;;;41.11;32.81
27294;BME280;14785;52.556;13.430;2022-08-04T12:54:46;100474.75;;;41.35;30.71
27294;BME280;14785;52.556;13.430;2022-08-04T12:57:16;100467.88;;;41.33;29.07
27294;BME280;14785;52.556;13.430;2022-08-04T12:59:43;100465.91;;;40.06;28.90
27294;BME280;14785;52.556;13.430;2022-08-04T13:02:32;100460.28;;;41.68;29.04
27294;BME280;14785;52.556;13.430;2022-08-04T13:05:03;100455.00;;;41.82;30.27
27294;BME280;14785;52.556;13.430;2022-08-04T13:07:36;100454.66;;;42.51;28.47
27294;BME280;14785;52.556;13.430;2022-08-04T13:10:11;100451.31;;;41.97;27.69
27294;BME280;14785;52.556;13.430;2022-08-04T13:12:37;100448.91;;;41.58;26.53
27294;BME280;14785;52.556;13.430;2022-08-04T13:15:12;100452.31;;;42.53;28.91
27294;BME280;14785;52.556;13.430;2022-08-04T13:18:01;100442.03;;;42.61;27.15
27294;BME280;14785;52.556;13.430;2022-08-04T13:20:30;100444.25;;;41.65;27.70
27294;BME280;14785;52.556;13.430;2022-08-04T13:23:03;100440.38;;;40.97;27.21
27294;BME280;14785;52.556;13.430;2022-08-04T13:25:30;100437.44;;;40.43;27.70
27294;BME280;14785;52.556;13.430;2022-08-04T13:27:57;100436.41;;;40.05;28.76
27294;BME280;14785;52.556;13.430;2022-08-04T13:30:26;100436.81;;;40.50;29.21
27294;BME280;14785;52.556;13.430;2022-08-04T13:32:55;100433.00;;;40.89;28.04
27294;BME280;14785;52.556;13.430;2022-08-04T13:35:23;100433.09;;;40.92;27.90
27294;BME280;14785;52.556;13.430;2022-08-04T13:37:49;100432.00;;;40.97;27.02
27294;BME280;14785;52.556;13.430;2022-08-04T13:40:21;100418.47;;;40.49;27.84
27294;BME280;14785;52.556;13.430;2022-08-04T13:42:50;100423.03;;;40.88;26.36
27294;BME280;14785;52.556;13.430;2022-08-04T13:45:21;100418.53;;;41.37;26.72
27294;BME280;14785;52.556;13.430;2022-08-04T13:47:49;100408.47;;;40.98;26.49
27294;BME280;14785;52.556;13.430;2022-08-04T13:50:21;100409.53;;;41.09;24.50
27294;BME280;14785;52.556;13.430;2022-08-04T13:52:51;100412.94;;;41.56;25.89
27294;BME280;14785;52.556;13.430;2022-08-04T13:58:20;100407.28;;;41.53;25.84
27294;BME280;14785;52.556;13.430;2022-08-04T14:00:58;100399.56;;;42.07;25.16
27294;BME280;14785;52.556;13.430;2022-08-04T14:03:35;100406.16;;;41.76;22.87
27294;BME280;14785;52.556;13.430;2022-08-04T14:06:23;100406.19;;;41.38;23.73
27294;BME280;14785;52.556;13.430;2022-08-04T14:11:31;100398.91;;;41.72;23.92
27294;BME280;14785;52.556;13.430;2022-08-04T14:13:57;100390.22;;;42.22;23.20
27294;BME280;14785;52.556;13.430;2022-08-04T14:16:23;100392.06;;;42.85;23.84
27294;BME280;14785;52.556;13.430;2022-08-04T14:18:59;100383.56;;;42.78;22.86
27294;BME280;14785;52.556;13.430;2022-08-04T14:21:25;100384.72;;;43.03;20.97
27294;BME280;14785;52.556;13.430;2022-08-04T14:23:53;100384.84;;;42.84;20.21
27294;BME280;14785;52.556;13.430;2022-08-04T14:26:31;100377.25;;;40.58;22.82
27294;BME280;14785;52.556;13.430;2022-08-04T14:29:10;100376.75;;;41.82;22.60
27294;BME280;14785;52.556;13.430;2022-08-04T14:31:36;100374.28;;;41.39;21.76
27294;BME280;14785;52.556;13.430;2022-08-04T14:34:02;100378.97;;;42.18;23.38
27294;BME280;14785;52.556;13.430;2022-08-04T14:36:37;100374.41;;;42.29;20.71
27294;BME280;14785;52.556;13.430;2022-08-04T14:39:03;100368.59;;;42.67;21.44
27294;BME280;14785;52.556;13.430;2022-08-04T14:41:46;100367.16;;;43.36;22.04
27294;BME280;14785;52.556;13.430;2022-08-04T14:44:12;100365.69;;;44.26;22.62
27294;BME280;14785;52.556;13.430;2022-08-04T14:46:54;100373.25;;;44.72;21.00
27294;BME280;14785;52.556;13.430;2022-08-04T14:49:20;100361.97;;;44.62;19.48
27294;BME280;14785;52.556;13.430;2022-08-04T14:51:59;100359.66;;;43.84;21.21
27294;BME280;14785;52.556;13.430;2022-08-04T14:54:29;100366.00;;;43.41;20.47
27294;BME280;14785;52.556;13.430;2022-08-04T14:56:57;100364.38;;;43.40;20.08
27294;BME280;14785;52.556;13.430;2022-08-04T14:59:25;100370.28;;;44.01;19.77
27294;BME280;14785;52.556;13.430;2022-08-04T15:01:52;100364.53;;;44.30;20.62
27294;BME280;14785;52.556;13.430;2022-08-04T15:04:20;100360.41;;;44.68;20.17
27294;BME280;14785;52.556;13.430;2022-08-04T15:06:49;100351.66;;;41.25;20.71
27294;BME280;14785;52.556;13.430;2022-08-04T15:09:15;100342.78;;;39.29;23.20
27294;BME280;14785;52.556;13.430;2022-08-04T15:11:41;100339.53;;;39.98;23.65
27294;BME280;14785;52.556;13.430;2022-08-04T15:14:06;100341.94;;;42.25;21.29
27294;BME280;14785;52.556;13.430;2022-08-04T15:16:32;100344.75;;;40.00;22.61
27294;BME280;14785;52.556;13.430;2022-08-04T15:18:59;100341.59;;;40.01;22.92
27294;BME280;14785;52.556;13.430;2022-08-04T15:21:26;100341.53;;;40.48;22.61
27294;BME280;14785;52.556;13.430;2022-08-04T15:23:56;100342.22;;;41.33;23.92
27294;BME280;14785;52.556;13.430;2022-08-04T15:26:26;100335.75;;;41.67;23.16
27294;BME280;14785;52.556;13.430;2022-08-04T15:28:56;100338.56;;;37.96;25.72
27294;BME280;14785;52.556;13.430;2022-08-04T15:31:26;100338.06;;;38.90;26.54
27294;BME280;14785;52.556;13.430;2022-08-04T15:33:54;100342.16;;;39.08;24.68
27294;BME280;14785;52.556;13.430;2022-08-04T15:36:41;100334.78;;;39.55;24.99
27294;BME280;14785;52.556;13.430;2022-08-04T15:41:55;100333.25;;;38.03;26.04
27294;BME280;14785;52.556;13.430;2022-08-04T15:44:35;100322.56;;;37.69;26.33
27294;BME280;14785;52.556;13.430;2022-08-04T15:47:10;100324.91;;;38.39;26.75
27294;BME280;14785;52.556;13.430;2022-08-04T15:49:36;100321.59;;;37.65;27.51
27294;BME280;14785;52.556;13.430;2022-08-04T15:52:06;100322.81;;;38.48;26.07
27294;BME280;14785;52.556;13.430;2022-08-04T15:54:31;100325.63;;;38.60;26.48
27294;BME280;14785;52.556;13.430;2022-08-04T15:56:57;100318.44;;;37.99;27.03
27294;BME280;14785;52.556;13.430;2022-08-04T15:59:55;100318.47;;;37.66;27.29
27294;BME280;14785;52.556;13.430;2022-08-04T16:12:55;100308.69;;;37.81;27.52
27294;BME280;14785;52.556;13.430;2022-08-04T16:15:36;100304.53;;;38.23;26.89
27294;BME280;14785;52.556;13.430;2022-08-04T16:18:02;100303.75;;;37.54;28.41
27294;BME280;14785;52.556;13.430;2022-08-04T16:20:28;100307.56;;;37.49;29.37
27294;BME280;14785;52.556;13.430;2022-08-04T16:22:56;100298.63;;;37.88;28.76
27294;BME280;14785;52.556;13.430;2022-08-04T16:25:43;100304.28;;;38.40;27.82
27294;BME280;14785;52.556;13.430;2022-08-04T16:31:00;100304.44;;;40.28;28.50
27294;BME280;14785;52.556;13.430;2022-08-04T16:33:30;100305.22;;;41.55;26.13
27294;BME280;14785;52.556;13.430;2022-08-04T16:35:58;100308.13;;;42.33;24.59